x

Ne St Martin - 330 Nm Ne St Martin Is (41044) Wave Buoy

8:50pm - Mon 2nd Mar 2015 All times are UTC.

  • Sig Wave height 8.2ft
  • Swell Direction
  • Peak Period 10s
  • Average Period 7s
  • Wind
    18mph, 22mph gusts
  • Sea Temp 78°f
  • Air Temp 77°f
  • Sea Pressure 1018.2mb

More Historic Weather Station data

Upgrade to MSW Pro to gain access to the past 30 days of data for over 8000 Wavebouys and Weather Stations around the globe.

Join Pro

Comparision Forecast

View Surf forecast
   
Mon 03/02 8:50pm 8ft 10s 7s 18 22 mph 1018.2mb 78f 77f
7:50pm 8.5ft 11s 7s 18 20 mph 1018.2mb 78f 77f
6:50pm 7.5ft 11s 7s 18 22 mph 1018.6mb 78f 77f
5:50pm 8ft 11s 7s 20 25 mph 1019mb 78f 77f
4:50pm 8.5ft 11s 7s 18 22 mph 1019.8mb 78f 76f
3:50pm 8.5ft 10s 7s 20 22 mph 1021mb 78f 77f
2:50pm 8.5ft 10s 7s 22 25 mph 1021.7mb 78f 77f
1:50pm 9ft 10s 7s 20 25 mph 1021.9mb 78f 77f
12:50pm 9ft 10s 7s 22 27 mph 1021.6mb 78f 77f
11:50am 8.5ft 10s 6s 22 27 mph 1021.1mb 78f 77f
10:50am 8.5ft 10s 7s 22 27 mph 1020.6mb 78f 77f
9:50am 8ft 8s 6s 22 25 mph 1019.9mb 78f 76f
8:50am 8ft 10s 7s 22 27 mph 1019.6mb 78f 76f
7:50am 7.5ft 10s 7s 20 25 mph 1019.7mb 78f 76f
6:50am 8ft 10s 7s 20 22 mph 1020.1mb 78f 76f
5:50am 7.5ft 10s 6s 18 22 mph 1020.6mb 78f 76f
4:50am 8ft 10s 6s 20 25 mph 1021.2mb 78f 77f
3:50am 8ft 10s 7s 20 25 mph 1021.9mb 78f 77f
2:50am 8ft 10s 7s 20 25 mph 1022.2mb 78f 77f
1:50am 8ft 9s 7s 20 22 mph 1022.3mb 78f 77f
12:50am 7ft 9s 6s 20 22 mph 1022.1mb 78f 77f
Sun 03/01 11:50pm 8.5ft 10s 7s 20 25 mph 1021.7mb 78f 77f
10:50pm 8ft 10s 7s 20 22 mph 1021.2mb 78f 77f
9:50pm 8ft 10s 7s 18 22 mph 1020.9mb 78f 77f
8:50pm 9ft 9s 7s 18 22 mph 1020.5mb 78f 77f
7:50pm 9ft 10s 7s 20 22 mph 1020.4mb 78f 77f
6:50pm 8ft 10s 6s 20 25 mph 1020.7mb 78f 77f
5:50pm 8ft 10s 7s 20 25 mph 1021.4mb 78f 76f
4:50pm 8ft 9s 7s 16 22 mph 1022.1mb 78f 75f
3:50pm 9ft 10s 7s 18 22 mph 1022.8mb 78f 76f
2:50pm 8ft 10s 7s 20 25 mph 1023.4mb 78f 76f
1:50pm 8.5ft 8s 6s 20 25 mph 1023.6mb 78f 76f
12:50pm 9ft 10s 7s 22 27 mph 1023.1mb 78f 76f
11:50am 10ft 10s 7s 22 27 mph 1022.4mb 78f 76f
10:50am 8.5ft 9s 6s 22 27 mph 1021.6mb 78f 76f
9:50am 8.5ft 9s 6s 16 22 mph 1021.2mb 78f 74f
8:50am 9ft 9s 7s 22 27 mph 1020.6mb 78f 76f
7:50am 8.5ft 9s 7s 25 29 mph 1020.4mb 78f 76f
6:50am 9ft 9s 7s 22 27 mph 1020.9mb 78f 76f
5:50am 9ft 9s 7s 22 27 mph 1021.6mb 78f 76f
4:50am 9ft 9s 6s 22 25 mph 1022.4mb 78f 76f
3:50am 8ft 9s 6s 22 27 mph 1022.5mb 78f 77f
2:50am 8ft 9s 6s 22 27 mph 1022.9mb 78f 77f
1:50am 8.5ft 9s 6s 20 25 mph 1023.2mb 78f 77f
12:50am 8.5ft 8s 6s 22 27 mph 1023.1mb 78f 77f
Sat 02/28 11:50pm 8ft 8s 6s 22 27 mph 1022.9mb 78f 77f
10:50pm 9.5ft 9s 7s 20 25 mph 1022.1mb 78f 77f
9:50pm 8.5ft 9s 7s 20 25 mph 1021.7mb 78f 77f
8:50pm 8ft 9s 6s 20 25 mph 1021.5mb 78f 77f
7:50pm 8ft 9s 6s 20 25 mph 1021.2mb 78f 77f
6:50pm 9ft 9s 7s 22 27 mph 1021.4mb 78f 77f
5:50pm 8.5ft 8s 6s 20 25 mph 1021.8mb 78f 77f
4:50pm 8ft 9s 6s 20 25 mph 1022.3mb 78f 77f
3:50pm 8.5ft 9s 6s 20 27 mph 1023mb 78f 77f
2:50pm 8ft 8s 6s 20 25 mph 1023.5mb 78f 77f
1:50pm 8ft 9s 6s 20 25 mph 1023.7mb 78f 77f
12:50pm 8.5ft 8s 6s 20 25 mph 1023.1mb 78f 77f
11:50am 8ft 9s 6s 25 29 mph 1022.7mb 78f 77f
10:50am 8.5ft 8s 6s 18 27 mph 1022.3mb 78f 76f
9:50am 8ft 9s 6s 20 25 mph 1021.5mb 78f 76f
8:50am 8ft 8s 6s 22 27 mph 1021mb 78f 76f
7:50am 7.5ft 8s 6s 22 27 mph 1020.8mb 78f 77f
6:50am 8ft 8s 6s 22 27 mph 1020.9mb 78f 76f
5:50am 9ft 9s 7s 22 27 mph 1021.4mb 78f 77f
4:50am 8ft 9s 6s 22 27 mph 1022.1mb 78f 76f
3:50am 8ft 8s 6s 20 25 mph 1022.4mb 78f 77f
2:50am 8ft 8s 6s 22 25 mph 1022.4mb 78f 77f
1:50am 8ft 8s 6s 22 27 mph 1022.4mb 78f 77f
12:50am 8ft 9s 6s 22 29 mph 1022.1mb 78f 77f
Fri 02/27 11:50pm 8ft 8s 6s 25 29 mph 1021.6mb 78f 77f
10:50pm 8ft 8s 6s 22 27 mph 1021.2mb 78f 77f
9:50pm 8ft 8s 6s 20 25 mph 1020.8mb 78f 77f
8:50pm 7.5ft 8s 6s 22 25 mph 1020.4mb 78f 77f
7:50pm 8ft 8s 6s 22 27 mph 1020mb 79f 77f
6:50pm 7.5ft 9s 6s 20 25 mph 1019.9mb 79f 77f
5:50pm 7ft 7s 6s 20 22 mph 1020.4mb 79f 77f
4:50pm 8ft 7s 6s 22 27 mph 1021.1mb 79f 76f
3:50pm 7.5ft 8s 6s 22 27 mph 1021.6mb 79f 77f
2:50pm 8ft 8s 6s 16 20 mph 1022.9mb 79f 73f
1:50pm 7ft 10s 6s 22 29 mph 1022.6mb 78f 77f
12:50pm 6.5ft 8s 6s 22 27 mph 1022.3mb 78f 77f
11:50am 7.5ft 9s 6s 22 27 mph 1022mb 79f 77f
10:50am 7ft 7s 6s 22 27 mph 1021.5mb 78f 77f
9:50am 6.5ft 8s 6s 18 25 mph 1021mb 78f 77f
8:50am 7ft 7s 6s 20 25 mph 1020.7mb 78f 77f
7:50am 7ft 7s 6s 20 25 mph 1020.5mb 79f 77f
6:50am 7ft 8s 6s 22 25 mph 1020.9mb 79f 77f
5:50am 7ft 9s 6s 22 25 mph 1021.1mb 79f 77f
4:50am 6ft 10s 6s 22 27 mph 1021.6mb 79f 77f
3:50am 7ft 9s 6s 22 27 mph 1021.7mb 79f 77f
2:50am 6.5ft 9s 6s 20 25 mph 1022.1mb 79f 77f
1:50am 6.5ft 10s 6s 20 25 mph 1022.3mb 79f 78f
12:50am 6ft 11s 6s 20 22 mph 1022.2mb 79f 77f
Thu 02/26 11:50pm 6ft 9s 6s 20 25 mph 1021.6mb 79f 78f
10:50pm 6ft 11s 6s 18 22 mph 1021.1mb 79f 77f
9:50pm 6ft 11s 6s 16 22 mph 1020.6mb 79f 76f